sensor_id;sensor_type;location;lat;lon;timestamp;temperature;humidity
21035;DHT22;10676;50.848;3.272;2022-12-18T00:00:41;-5.30;99.90
21035;DHT22;10676;50.848;3.272;2022-12-18T00:03:07;-5.40;99.90
21035;DHT22;10676;50.848;3.272;2022-12-18T00:05:33;-5.50;99.90
21035;DHT22;10676;50.848;3.272;2022-12-18T00:07:58;-5.60;99.90
21035;DHT22;10676;50.848;3.272;2022-12-18T00:10:24;-5.80;99.90
21035;DHT22;10676;50.848;3.272;2022-12-18T00:12:50;-5.90;99.90
21035;DHT22;10676;50.848;3.272;2022-12-18T00:15:15;-5.90;99.90
21035;DHT22;10676;50.848;3.272;2022-12-18T00:17:41;-5.90;99.90
21035;DHT22;10676;50.848;3.272;2022-12-18T00:20:07;-5.90;99.90
21035;DHT22;10676;50.848;3.272;2022-12-18T00:22:33;-6.00;99.90
21035;DHT22;10676;50.848;3.272;2022-12-18T00:24:59;-6.00;99.90
21035;DHT22;10676;50.848;3.272;2022-12-18T00:27:24;-6.00;99.90
21035;DHT22;10676;50.848;3.272;2022-12-18T00:29:50;-6.00;99.90
21035;DHT22;10676;50.848;3.272;2022-12-18T00:32:15;-6.20;99.90
21035;DHT22;10676;50.848;3.272;2022-12-18T00:34:41;-6.20;99.90
21035;DHT22;10676;50.848;3.272;2022-12-18T00:37:07;-6.30;99.90
21035;DHT22;10676;50.848;3.272;2022-12-18T00:39:32;-6.30;99.90
21035;DHT22;10676;50.848;3.272;2022-12-18T00:41:58;-6.20;99.90
21035;DHT22;10676;50.848;3.272;2022-12-18T00:44:42;-6.30;99.90
21035;DHT22;10676;50.848;3.272;2022-12-18T00:47:08;-6.30;99.90
21035;DHT22;10676;50.848;3.272;2022-12-18T00:49:33;-6.30;99.90
21035;DHT22;10676;50.848;3.272;2022-12-18T00:51:59;-6.40;99.90
21035;DHT22;10676;50.848;3.272;2022-12-18T00:54:25;-6.40;99.90
21035;DHT22;10676;50.848;3.272;2022-12-18T00:56:50;-6.50;99.90
21035;DHT22;10676;50.848;3.272;2022-12-18T00:59:17;-6.50;99.90
21035;DHT22;10676;50.848;3.272;2022-12-18T01:01:44;-6.50;99.90
21035;DHT22;10676;50.848;3.272;2022-12-18T01:04:10;-6.60;99.90
21035;DHT22;10676;50.848;3.272;2022-12-18T01:06:35;-6.70;99.90
21035;DHT22;10676;50.848;3.272;2022-12-18T01:09:02;-6.80;99.90
21035;DHT22;10676;50.848;3.272;2022-12-18T01:11:28;-6.80;99.90
21035;DHT22;10676;50.848;3.272;2022-12-18T01:13:54;-6.90;99.90
21035;DHT22;10676;50.848;3.272;2022-12-18T01:16:20;-6.90;99.90
21035;DHT22;10676;50.848;3.272;2022-12-18T01:18:46;-7.00;99.90
21035;DHT22;10676;50.848;3.272;2022-12-18T01:21:15;-7.10;99.90
21035;DHT22;10676;50.848;3.272;2022-12-18T01:23:41;-7.20;99.90
21035;DHT22;10676;50.848;3.272;2022-12-18T01:26:09;-7.30;99.90
21035;DHT22;10676;50.848;3.272;2022-12-18T01:28:36;-7.30;99.90
21035;DHT22;10676;50.848;3.272;2022-12-18T01:31:17;-7.40;99.90
21035;DHT22;10676;50.848;3.272;2022-12-18T01:33:47;-7.50;99.90
21035;DHT22;10676;50.848;3.272;2022-12-18T01:36:18;-7.50;99.90
21035;DHT22;10676;50.848;3.272;2022-12-18T01:38:44;-7.50;99.90
21035;DHT22;10676;50.848;3.272;2022-12-18T01:41:10;-7.60;99.90
21035;DHT22;10676;50.848;3.272;2022-12-18T01:46:11;-7.60;99.90
21035;DHT22;10676;50.848;3.272;2022-12-18T01:48:38;-7.60;99.90
21035;DHT22;10676;50.848;3.272;2022-12-18T01:51:06;-7.60;99.90
21035;DHT22;10676;50.848;3.272;2022-12-18T01:53:32;-7.50;99.90
21035;DHT22;10676;50.848;3.272;2022-12-18T01:55:59;-7.50;99.90
21035;DHT22;10676;50.848;3.272;2022-12-18T02:01:13;-7.30;99.90
21035;DHT22;10676;50.848;3.272;2022-12-18T02:03:42;-7.30;99.90
21035;DHT22;10676;50.848;3.272;2022-12-18T02:25:34;-6.40;99.90
21035;DHT22;10676;50.848;3.272;2022-12-18T02:28:06;-6.40;99.90
21035;DHT22;10676;50.848;3.272;2022-12-18T02:30:35;-6.40;99.90
21035;DHT22;10676;50.848;3.272;2022-12-18T02:33:04;-6.40;99.90
21035;DHT22;10676;50.848;3.272;2022-12-18T02:35:30;-6.40;99.90
21035;DHT22;10676;50.848;3.272;2022-12-18T02:37:56;-6.50;99.90
21035;DHT22;10676;50.848;3.272;2022-12-18T02:40:24;-6.50;99.90
21035;DHT22;10676;50.848;3.272;2022-12-18T02:42:51;-6.60;99.90
21035;DHT22;10676;50.848;3.272;2022-12-18T02:45:17;-6.70;99.90
21035;DHT22;10676;50.848;3.272;2022-12-18T02:47:45;-6.70;99.90
21035;DHT22;10676;50.848;3.272;2022-12-18T02:50:30;-6.70;99.90
21035;DHT22;10676;50.848;3.272;2022-12-18T02:53:28;-6.70;99.90
21035;DHT22;10676;50.848;3.272;2022-12-18T02:56:17;-6.80;99.90
21035;DHT22;10676;50.848;3.272;2022-12-18T03:04:03;-6.80;99.90
21035;DHT22;10676;50.848;3.272;2022-12-18T03:06:33;-6.90;99.90
21035;DHT22;10676;50.848;3.272;2022-12-18T03:09:07;-6.90;99.90
21035;DHT22;10676;50.848;3.272;2022-12-18T03:11:37;-6.80;99.90
21035;DHT22;10676;50.848;3.272;2022-12-18T03:14:24;-6.70;99.90
21035;DHT22;10676;50.848;3.272;2022-12-18T03:16:53;-6.60;99.90
21035;DHT22;10676;50.848;3.272;2022-12-18T03:19:22;-6.50;99.90
21035;DHT22;10676;50.848;3.272;2022-12-18T03:21:52;-6.40;99.90
21035;DHT22;10676;50.848;3.272;2022-12-18T03:24:20;-6.50;99.90
21035;DHT22;10676;50.848;3.272;2022-12-18T03:26:51;-6.50;99.90
21035;DHT22;10676;50.848;3.272;2022-12-18T03:29:33;-6.50;99.90
21035;DHT22;10676;50.848;3.272;2022-12-18T03:32:06;-6.40;99.90
21035;DHT22;10676;50.848;3.272;2022-12-18T03:34:36;-6.30;99.90
21035;DHT22;10676;50.848;3.272;2022-12-18T03:37:04;-6.20;99.90
21035;DHT22;10676;50.848;3.272;2022-12-18T03:39:30;-6.10;99.90
21035;DHT22;10676;50.848;3.272;2022-12-18T03:42:15;-6.10;99.90
21035;DHT22;10676;50.848;3.272;2022-12-18T03:47:31;-6.10;99.90
21035;DHT22;10676;50.848;3.272;2022-12-18T03:52:34;-6.10;99.90
21035;DHT22;10676;50.848;3.272;2022-12-18T03:55:03;-6.20;99.90
21035;DHT22;10676;50.848;3.272;2022-12-18T03:57:31;-6.30;99.90
21035;DHT22;10676;50.848;3.272;2022-12-18T04:00:02;-6.30;99.90
21035;DHT22;10676;50.848;3.272;2022-12-18T04:02:30;-6.40;99.90
21035;DHT22;10676;50.848;3.272;2022-12-18T04:04:59;-6.40;99.90
21035;DHT22;10676;50.848;3.272;2022-12-18T04:07:27;-6.50;99.90
21035;DHT22;10676;50.848;3.272;2022-12-18T04:09:55;-6.50;99.90
21035;DHT22;10676;50.848;3.272;2022-12-18T04:12:25;-6.60;99.90
21035;DHT22;10676;50.848;3.272;2022-12-18T04:14:51;-6.70;99.90
21035;DHT22;10676;50.848;3.272;2022-12-18T04:17:17;-6.80;99.90
21035;DHT22;10676;50.848;3.272;2022-12-18T04:19:43;-6.90;99.90
21035;DHT22;10676;50.848;3.272;2022-12-18T04:22:10;-6.90;99.90
21035;DHT22;10676;50.848;3.272;2022-12-18T04:24:35;-6.90;99.90
21035;DHT22;10676;50.848;3.272;2022-12-18T04:27:01;-6.90;99.90
21035;DHT22;10676;50.848;3.272;2022-12-18T04:29:27;-6.90;99.90
21035;DHT22;10676;50.848;3.272;2022-12-18T04:31:52;-7.00;99.90
21035;DHT22;10676;50.848;3.272;2022-12-18T04:34:18;-7.00;99.90
21035;DHT22;10676;50.848;3.272;2022-12-18T04:36:43;-7.00;99.90
21035;DHT22;10676;50.848;3.272;2022-12-18T04:39:09;-7.10;99.90
21035;DHT22;10676;50.848;3.272;2022-12-18T04:41:35;-7.10;99.90
21035;DHT22;10676;50.848;3.272;2022-12-18T04:44:01;-7.10;99.90
21035;DHT22;10676;50.848;3.272;2022-12-18T04:46:26;-7.10;99.90
21035;DHT22;10676;50.848;3.272;2022-12-18T04:48:52;-7.10;99.90
21035;DHT22;10676;50.848;3.272;2022-12-18T04:51:18;-7.10;99.90
21035;DHT22;10676;50.848;3.272;2022-12-18T04:53:43;-7.20;99.90
21035;DHT22;10676;50.848;3.272;2022-12-18T04:56:12;-7.30;99.90
21035;DHT22;10676;50.848;3.272;2022-12-18T04:58:39;-7.30;99.90
21035;DHT22;10676;50.848;3.272;2022-12-18T05:01:06;-7.30;99.90
21035;DHT22;10676;50.848;3.272;2022-12-18T05:03:33;-7.30;99.90
21035;DHT22;10676;50.848;3.272;2022-12-18T05:05:59;-7.20;99.90
21035;DHT22;10676;50.848;3.272;2022-12-18T05:08:25;-7.20;99.90
21035;DHT22;10676;50.848;3.272;2022-12-18T05:11:02;-7.10;99.90
21035;DHT22;10676;50.848;3.272;2022-12-18T05:13:29;-7.10;99.90
21035;DHT22;10676;50.848;3.272;2022-12-18T05:15:55;-7.10;99.90
21035;DHT22;10676;50.848;3.272;2022-12-18T05:18:22;-7.10;99.90
21035;DHT22;10676;50.848;3.272;2022-12-18T05:20:49;-7.10;99.90
21035;DHT22;10676;50.848;3.272;2022-12-18T05:23:15;-7.20;99.90
21035;DHT22;10676;50.848;3.272;2022-12-18T05:25:40;-7.20;99.90
21035;DHT22;10676;50.848;3.272;2022-12-18T05:28:06;-7.30;99.90
21035;DHT22;10676;50.848;3.272;2022-12-18T05:30:32;-7.30;99.90
21035;DHT22;10676;50.848;3.272;2022-12-18T05:33:01;-7.40;99.90
21035;DHT22;10676;50.848;3.272;2022-12-18T05:35:26;-7.40;99.90
21035;DHT22;10676;50.848;3.272;2022-12-18T05:37:52;-7.40;99.90
21035;DHT22;10676;50.848;3.272;2022-12-18T05:40:17;-7.40;99.90
21035;DHT22;10676;50.848;3.272;2022-12-18T05:42:46;-7.40;99.90
21035;DHT22;10676;50.848;3.272;2022-12-18T05:45:12;-7.40;99.90
21035;DHT22;10676;50.848;3.272;2022-12-18T05:47:37;-7.30;99.90
21035;DHT22;10676;50.848;3.272;2022-12-18T05:50:03;-7.20;99.90
21035;DHT22;10676;50.848;3.272;2022-12-18T05:52:30;-7.10;99.90
21035;DHT22;10676;50.848;3.272;2022-12-18T05:54:55;-7.00;99.90
21035;DHT22;10676;50.848;3.272;2022-12-18T05:57:21;-6.90;99.90
21035;DHT22;10676;50.848;3.272;2022-12-18T05:59:47;-6.90;99.90
21035;DHT22;10676;50.848;3.272;2022-12-18T06:02:12;-6.80;99.90
21035;DHT22;10676;50.848;3.272;2022-12-18T06:04:38;-6.80;99.90
21035;DHT22;10676;50.848;3.272;2022-12-18T06:07:03;-6.80;99.90
21035;DHT22;10676;50.848;3.272;2022-12-18T06:09:29;-6.70;99.90
21035;DHT22;10676;50.848;3.272;2022-12-18T06:11:55;-6.70;99.90
21035;DHT22;10676;50.848;3.272;2022-12-18T06:14:20;-6.60;99.90
21035;DHT22;10676;50.848;3.272;2022-12-18T06:16:46;-6.60;99.90
21035;DHT22;10676;50.848;3.272;2022-12-18T06:19:14;-6.50;99.90
21035;DHT22;10676;50.848;3.272;2022-12-18T06:21:41;-6.50;99.90
21035;DHT22;10676;50.848;3.272;2022-12-18T06:24:06;-6.50;99.90
21035;DHT22;10676;50.848;3.272;2022-12-18T06:26:32;-6.50;99.90
21035;DHT22;10676;50.848;3.272;2022-12-18T06:28:58;-6.60;99.90
21035;DHT22;10676;50.848;3.272;2022-12-18T06:31:24;-6.60;99.90
21035;DHT22;10676;50.848;3.272;2022-12-18T06:33:49;-6.50;99.90
21035;DHT22;10676;50.848;3.272;2022-12-18T06:36:15;-6.40;99.90
21035;DHT22;10676;50.848;3.272;2022-12-18T06:38:43;-6.40;99.90
21035;DHT22;10676;50.848;3.272;2022-12-18T06:41:14;-6.40;99.90
21035;DHT22;10676;50.848;3.272;2022-12-18T06:43:40;-6.40;99.90
21035;DHT22;10676;50.848;3.272;2022-12-18T06:46:06;-6.50;99.90
21035;DHT22;10676;50.848;3.272;2022-12-18T06:48:32;-6.40;99.90
21035;DHT22;10676;50.848;3.272;2022-12-18T06:50:58;-6.40;99.90
21035;DHT22;10676;50.848;3.272;2022-12-18T06:53:24;-6.40;99.90
21035;DHT22;10676;50.848;3.272;2022-12-18T06:55:50;-6.40;99.90
21035;DHT22;10676;50.848;3.272;2022-12-18T06:58:19;-6.40;99.90
21035;DHT22;10676;50.848;3.272;2022-12-18T07:00:46;-6.40;99.90
21035;DHT22;10676;50.848;3.272;2022-12-18T07:03:12;-6.30;99.90
21035;DHT22;10676;50.848;3.272;2022-12-18T07:05:41;-6.20;99.90
21035;DHT22;10676;50.848;3.272;2022-12-18T07:08:07;-6.10;99.90
21035;DHT22;10676;50.848;3.272;2022-12-18T07:10:33;-6.10;99.90
21035;DHT22;10676;50.848;3.272;2022-12-18T07:12:59;-6.10;99.90
21035;DHT22;10676;50.848;3.272;2022-12-18T07:15:24;-6.10;99.90
21035;DHT22;10676;50.848;3.272;2022-12-18T07:17:50;-6.10;99.90
21035;DHT22;10676;50.848;3.272;2022-12-18T07:20:19;-6.20;99.90
21035;DHT22;10676;50.848;3.272;2022-12-18T07:22:44;-6.10;99.90
21035;DHT22;10676;50.848;3.272;2022-12-18T07:25:10;-6.20;99.90
21035;DHT22;10676;50.848;3.272;2022-12-18T07:27:36;-6.10;99.90
21035;DHT22;10676;50.848;3.272;2022-12-18T07:30:01;-6.10;99.90
21035;DHT22;10676;50.848;3.272;2022-12-18T07:32:27;-6.00;99.90
21035;DHT22;10676;50.848;3.272;2022-12-18T07:34:53;-6.00;99.90
21035;DHT22;10676;50.848;3.272;2022-12-18T07:37:18;-6.00;99.90
21035;DHT22;10676;50.848;3.272;2022-12-18T07:39:44;-5.90;99.90
21035;DHT22;10676;50.848;3.272;2022-12-18T07:42:09;-5.90;99.90
21035;DHT22;10676;50.848;3.272;2022-12-18T07:44:54;-5.90;99.90
21035;DHT22;10676;50.848;3.272;2022-12-18T07:47:19;-5.90;99.90
21035;DHT22;10676;50.848;3.272;2022-12-18T07:49:45;-5.90;99.90
21035;DHT22;10676;50.848;3.272;2022-12-18T07:52:10;-5.90;99.90
21035;DHT22;10676;50.848;3.272;2022-12-18T07:54:38;-5.80;99.90
21035;DHT22;10676;50.848;3.272;2022-12-18T07:57:03;-5.80;99.90
21035;DHT22;10676;50.848;3.272;2022-12-18T07:59:29;-5.80;99.90
21035;DHT22;10676;50.848;3.272;2022-12-18T08:01:55;-5.70;99.90
21035;DHT22;10676;50.848;3.272;2022-12-18T08:04:20;-5.60;99.90
21035;DHT22;10676;50.848;3.272;2022-12-18T08:06:46;-5.40;99.90
21035;DHT22;10676;50.848;3.272;2022-12-18T08:09:12;-5.30;99.90
21035;DHT22;10676;50.848;3.272;2022-12-18T08:11:37;-5.10;99.90
21035;DHT22;10676;50.848;3.272;2022-12-18T08:14:03;-5.00;99.90
21035;DHT22;10676;50.848;3.272;2022-12-18T08:16:29;-4.80;99.90
21035;DHT22;10676;50.848;3.272;2022-12-18T08:18:56;-4.70;99.90
21035;DHT22;10676;50.848;3.272;2022-12-18T08:21:26;-4.50;99.90
21035;DHT22;10676;50.848;3.272;2022-12-18T08:23:53;-4.30;99.90
21035;DHT22;10676;50.848;3.272;2022-12-18T08:26:19;-4.20;99.90
21035;DHT22;10676;50.848;3.272;2022-12-18T08:28:45;-4.00;99.90
21035;DHT22;10676;50.848;3.272;2022-12-18T08:31:11;-3.90;99.90
21035;DHT22;10676;50.848;3.272;2022-12-18T08:33:37;-3.80;99.90
21035;DHT22;10676;50.848;3.272;2022-12-18T08:36:04;-3.70;99.90
21035;DHT22;10676;50.848;3.272;2022-12-18T08:38:34;-3.60;99.90
21035;DHT22;10676;50.848;3.272;2022-12-18T08:41:09;-3.50;99.90
21035;DHT22;10676;50.848;3.272;2022-12-18T08:43:35;-3.40;99.90
21035;DHT22;10676;50.848;3.272;2022-12-18T08:46:21;-3.30;99.90
21035;DHT22;10676;50.848;3.272;2022-12-18T08:48:49;-3.10;99.90
21035;DHT22;10676;50.848;3.272;2022-12-18T08:51:18;-3.10;99.90
21035;DHT22;10676;50.848;3.272;2022-12-18T08:53:44;-3.00;99.90
21035;DHT22;10676;50.848;3.272;2022-12-18T08:56:11;-2.90;99.90
21035;DHT22;10676;50.848;3.272;2022-12-18T08:58:36;-2.80;99.90
21035;DHT22;10676;50.848;3.272;2022-12-18T09:01:03;-2.70;99.90
21035;DHT22;10676;50.848;3.272;2022-12-18T09:03:30;-2.60;99.90
21035;DHT22;10676;50.848;3.272;2022-12-18T09:05:56;-2.50;99.90
21035;DHT22;10676;50.848;3.272;2022-12-18T09:08:21;-2.40;99.90
21035;DHT22;10676;50.848;3.272;2022-12-18T09:10:49;-2.20;99.90
21035;DHT22;10676;50.848;3.272;2022-12-18T09:13:16;-2.20;99.90
21035;DHT22;10676;50.848;3.272;2022-12-18T09:15:43;-2.20;99.90
21035;DHT22;10676;50.848;3.272;2022-12-18T09:18:11;-2.10;99.90
21035;DHT22;10676;50.848;3.272;2022-12-18T09:20:37;-2.00;99.90
21035;DHT22;10676;50.848;3.272;2022-12-18T09:23:04;-1.90;99.90
21035;DHT22;10676;50.848;3.272;2022-12-18T09:25:30;-1.80;99.90
21035;DHT22;10676;50.848;3.272;2022-12-18T09:28:04;-1.70;99.90
21035;DHT22;10676;50.848;3.272;2022-12-18T09:30:30;-1.50;99.90
21035;DHT22;10676;50.848;3.272;2022-12-18T09:32:58;-1.50;99.90
21035;DHT22;10676;50.848;3.272;2022-12-18T09:35:24;-1.40;99.90
21035;DHT22;10676;50.848;3.272;2022-12-18T09:37:50;-1.30;99.90
21035;DHT22;10676;50.848;3.272;2022-12-18T09:40:22;-1.30;99.90
21035;DHT22;10676;50.848;3.272;2022-12-18T09:42:52;-1.20;99.90
21035;DHT22;10676;50.848;3.272;2022-12-18T09:45:19;-1.10;99.90
21035;DHT22;10676;50.848;3.272;2022-12-18T09:47:46;-0.90;99.90
21035;DHT22;10676;50.848;3.272;2022-12-18T09:50:35;-0.90;99.90
21035;DHT22;10676;50.848;3.272;2022-12-18T09:53:18;-0.80;99.90
21035;DHT22;10676;50.848;3.272;2022-12-18T09:55:46;-0.70;99.90
21035;DHT22;10676;50.848;3.272;2022-12-18T09:58:37;-0.70;99.90
21035;DHT22;10676;50.848;3.272;2022-12-18T10:01:21;-0.60;99.90
21035;DHT22;10676;50.848;3.272;2022-12-18T10:03:48;-0.60;99.90
21035;DHT22;10676;50.848;3.272;2022-12-18T10:06:36;-0.50;99.90
21035;DHT22;10676;50.848;3.272;2022-12-18T10:12:17;-0.40;99.90
21035;DHT22;10676;50.848;3.272;2022-12-18T10:15:04;-0.30;99.90
21035;DHT22;10676;50.848;3.272;2022-12-18T10:17:37;-0.20;99.90
21035;DHT22;10676;50.848;3.272;2022-12-18T10:25:03;-0.10;99.90
21035;DHT22;10676;50.848;3.272;2022-12-18T10:27:31;-0.10;99.90
21035;DHT22;10676;50.848;3.272;2022-12-18T10:29:57;0.00;99.90
21035;DHT22;10676;50.848;3.272;2022-12-18T10:32:25;0.00;99.90
21035;DHT22;10676;50.848;3.272;2022-12-18T10:34:54;0.00;99.90
21035;DHT22;10676;50.848;3.272;2022-12-18T10:37:23;0.10;99.90
21035;DHT22;10676;50.848;3.272;2022-12-18T10:42:32;0.20;99.90
21035;DHT22;10676;50.848;3.272;2022-12-18T10:45:05;0.20;99.90
21035;DHT22;10676;50.848;3.272;2022-12-18T10:47:33;0.20;99.90
21035;DHT22;10676;50.848;3.272;2022-12-18T10:49:59;0.30;99.90
21035;DHT22;10676;50.848;3.272;2022-12-18T10:52:26;0.20;99.90
21035;DHT22;10676;50.848;3.272;2022-12-18T10:54:55;0.20;99.90
21035;DHT22;10676;50.848;3.272;2022-12-18T10:57:34;0.20;99.90
21035;DHT22;10676;50.848;3.272;2022-12-18T11:00:21;0.30;99.90
21035;DHT22;10676;50.848;3.272;2022-12-18T11:02:48;0.30;99.90
21035;DHT22;10676;50.848;3.272;2022-12-18T11:05:31;0.30;99.90
21035;DHT22;10676;50.848;3.272;2022-12-18T11:07:58;0.40;99.90
21035;DHT22;10676;50.848;3.272;2022-12-18T11:10:32;0.40;99.90
21035;DHT22;10676;50.848;3.272;2022-12-18T11:13:21;0.40;99.90
21035;DHT22;10676;50.848;3.272;2022-12-18T11:15:48;0.50;99.90
21035;DHT22;10676;50.848;3.272;2022-12-18T11:18:17;0.50;99.90
21035;DHT22;10676;50.848;3.272;2022-12-18T11:20:51;0.50;99.90
21035;DHT22;10676;50.848;3.272;2022-12-18T11:23:19;0.60;99.90
21035;DHT22;10676;50.848;3.272;2022-12-18T11:26:01;0.60;99.90
21035;DHT22;10676;50.848;3.272;2022-12-18T11:28:50;0.60;99.90
21035;DHT22;10676;50.848;3.272;2022-12-18T11:31:26;0.60;99.90
21035;DHT22;10676;50.848;3.272;2022-12-18T11:34:13;0.60;99.90
21035;DHT22;10676;50.848;3.272;2022-12-18T11:36:45;0.70;99.90
21035;DHT22;10676;50.848;3.272;2022-12-18T11:42:09;0.80;99.90
21035;DHT22;10676;50.848;3.272;2022-12-18T11:45:00;0.90;99.90
21035;DHT22;10676;50.848;3.272;2022-12-18T11:47:52;0.90;99.90
21035;DHT22;10676;50.848;3.272;2022-12-18T11:50:24;0.90;99.90
21035;DHT22;10676;50.848;3.272;2022-12-18T11:52:50;0.90;99.90
21035;DHT22;10676;50.848;3.272;2022-12-18T11:58:03;1.00;99.90
21035;DHT22;10676;50.848;3.272;2022-12-18T12:00:36;1.10;99.90
21035;DHT22;10676;50.848;3.272;2022-12-18T12:11:32;1.20;99.90
21035;DHT22;10676;50.848;3.272;2022-12-18T12:20:11;1.40;99.90
21035;DHT22;10676;50.848;3.272;2022-12-18T12:25:56;1.40;99.90
21035;DHT22;10676;50.848;3.272;2022-12-18T12:34:04;1.50;99.90
21035;DHT22;10676;50.848;3.272;2022-12-18T12:39:30;1.50;99.90
21035;DHT22;10676;50.848;3.272;2022-12-18T12:41:57;1.40;99.90
21035;DHT22;10676;50.848;3.272;2022-12-18T12:44:53;1.40;99.90
21035;DHT22;10676;50.848;3.272;2022-12-18T12:47:37;1.40;99.90
21035;DHT22;10676;50.848;3.272;2022-12-18T12:50:13;1.40;99.90
21035;DHT22;10676;50.848;3.272;2022-12-18T12:52:58;1.40;99.90
21035;DHT22;10676;50.848;3.272;2022-12-18T12:55:28;1.40;99.90
21035;DHT22;10676;50.848;3.272;2022-12-18T13:04:21;1.40;99.90
21035;DHT22;10676;50.848;3.272;2022-12-18T13:12:56;1.40;99.90
21035;DHT22;10676;50.848;3.272;2022-12-18T13:15:46;1.40;99.90
21035;DHT22;10676;50.848;3.272;2022-12-18T13:20:36;1.50;99.90
21035;DHT22;10676;50.848;3.272;2022-12-18T13:34:17;1.60;99.90
21035;DHT22;10676;50.848;3.272;2022-12-18T13:36:43;1.60;99.90
21035;DHT22;10676;50.848;3.272;2022-12-18T13:41:48;1.60;99.90
21035;DHT22;10676;50.848;3.272;2022-12-18T13:44:34;1.60;99.90
21035;DHT22;10676;50.848;3.272;2022-12-18T13:47:04;1.60;99.90
21035;DHT22;10676;50.848;3.272;2022-12-18T13:49:41;1.60;99.90
21035;DHT22;10676;50.848;3.272;2022-12-18T13:52:21;1.60;99.90
21035;DHT22;10676;50.848;3.272;2022-12-18T13:54:52;1.60;99.90
21035;DHT22;10676;50.848;3.272;2022-12-18T13:59:58;1.60;99.90
21035;DHT22;10676;50.848;3.272;2022-12-18T14:02:37;1.60;99.90
21035;DHT22;10676;50.848;3.272;2022-12-18T14:05:03;1.60;99.90
21035;DHT22;10676;50.848;3.272;2022-12-18T14:07:29;1.60;99.90
21035;DHT22;10676;50.848;3.272;2022-12-18T14:09:58;1.60;99.90
21035;DHT22;10676;50.848;3.272;2022-12-18T14:12:27;1.60;99.90
21035;DHT22;10676;50.848;3.272;2022-12-18T14:17:55;1.70;99.90
21035;DHT22;10676;50.848;3.272;2022-12-18T14:20:22;1.60;99.90
21035;DHT22;10676;50.848;3.272;2022-12-18T14:22:49;1.60;99.90
21035;DHT22;10676;50.848;3.272;2022-12-18T14:25:17;1.60;99.90
21035;DHT22;10676;50.848;3.272;2022-12-18T14:27:46;1.60;99.90
21035;DHT22;10676;50.848;3.272;2022-12-18T14:30:29;1.60;99.90
21035;DHT22;10676;50.848;3.272;2022-12-18T14:35:41;1.60;99.90
21035;DHT22;10676;50.848;3.272;2022-12-18T14:40:58;1.50;99.90
21035;DHT22;10676;50.848;3.272;2022-12-18T14:43:25;1.50;99.90
21035;DHT22;10676;50.848;3.272;2022-12-18T14:45:51;1.40;99.90
21035;DHT22;10676;50.848;3.272;2022-12-18T14:48:33;1.40;99.90
21035;DHT22;10676;50.848;3.272;2022-12-18T14:53:39;1.30;99.90
21035;DHT22;10676;50.848;3.272;2022-12-18T14:56:21;1.30;99.90
21035;DHT22;10676;50.848;3.272;2022-12-18T14:58:54;1.20;99.90
21035;DHT22;10676;50.848;3.272;2022-12-18T15:01:26;1.20;99.90
21035;DHT22;10676;50.848;3.272;2022-12-18T15:03:54;1.20;99.90
21035;DHT22;10676;50.848;3.272;2022-12-18T15:06:35;1.10;99.90
21035;DHT22;10676;50.848;3.272;2022-12-18T15:09:04;1.20;99.90
21035;DHT22;10676;50.848;3.272;2022-12-18T15:14:30;1.10;99.90
21035;DHT22;10676;50.848;3.272;2022-12-18T15:16:58;1.20;99.90
21035;DHT22;10676;50.848;3.272;2022-12-18T15:19:45;1.10;99.90
21035;DHT22;10676;50.848;3.272;2022-12-18T15:22:27;1.20;99.90
21035;DHT22;10676;50.848;3.272;2022-12-18T15:24:55;1.20;99.90
21035;DHT22;10676;50.848;3.272;2022-12-18T15:27:22;1.20;99.90
21035;DHT22;10676;50.848;3.272;2022-12-18T15:32:40;1.20;99.90
21035;DHT22;10676;50.848;3.272;2022-12-18T15:37:34;1.20;99.90
21035;DHT22;10676;50.848;3.272;2022-12-18T15:40:00;1.20;99.90
21035;DHT22;10676;50.848;3.272;2022-12-18T15:42:28;1.20;99.90
21035;DHT22;10676;50.848;3.272;2022-12-18T15:45:13;1.30;99.90
21035;DHT22;10676;50.848;3.272;2022-12-18T15:47:39;1.30;99.90
21035;DHT22;10676;50.848;3.272;2022-12-18T15:50:05;1.30;99.90
21035;DHT22;10676;50.848;3.272;2022-12-18T15:52:39;1.20;99.90
21035;DHT22;10676;50.848;3.272;2022-12-18T15:55:14;1.30;99.90
21035;DHT22;10676;50.848;3.272;2022-12-18T15:57:59;1.20;99.90
21035;DHT22;10676;50.848;3.272;2022-12-18T16:00:24;1.30;99.90
21035;DHT22;10676;50.848;3.272;2022-12-18T16:02:50;1.30;99.90
21035;DHT22;10676;50.848;3.272;2022-12-18T16:05:17;1.30;99.90
21035;DHT22;10676;50.848;3.272;2022-12-18T16:07:44;1.30;99.90
21035;DHT22;10676;50.848;3.272;2022-12-18T16:10:10;1.30;99.90
21035;DHT22;10676;50.848;3.272;2022-12-18T16:12:36;1.40;99.90
21035;DHT22;10676;50.848;3.272;2022-12-18T16:15:03;1.50;99.90
21035;DHT22;10676;50.848;3.272;2022-12-18T16:17:29;1.40;99.90
21035;DHT22;10676;50.848;3.272;2022-12-18T16:19:55;1.50;99.90
21035;DHT22;10676;50.848;3.272;2022-12-18T16:22:23;1.50;99.90
21035;DHT22;10676;50.848;3.272;2022-12-18T16:24:51;1.50;99.90
21035;DHT22;10676;50.848;3.272;2022-12-18T16:27:17;1.60;99.90
21035;DHT22;10676;50.848;3.272;2022-12-18T16:29:43;1.60;99.90
21035;DHT22;10676;50.848;3.272;2022-12-18T16:32:13;1.70;99.90
21035;DHT22;10676;50.848;3.272;2022-12-18T16:34:40;1.60;99.90
21035;DHT22;10676;50.848;3.272;2022-12-18T16:37:08;1.70;99.90
21035;DHT22;10676;50.848;3.272;2022-12-18T16:39:35;1.70;99.90
21035;DHT22;10676;50.848;3.272;2022-12-18T16:42:03;1.70;99.90
21035;DHT22;10676;50.848;3.272;2022-12-18T16:44:29;1.80;99.90
21035;DHT22;10676;50.848;3.272;2022-12-18T16:46:55;1.80;99.90
21035;DHT22;10676;50.848;3.272;2022-12-18T16:49:27;1.80;99.90
21035;DHT22;10676;50.848;3.272;2022-12-18T16:51:53;1.80;99.90
21035;DHT22;10676;50.848;3.272;2022-12-18T16:54:19;1.80;99.90
21035;DHT22;10676;50.848;3.272;2022-12-18T16:56:44;1.80;99.90
21035;DHT22;10676;50.848;3.272;2022-12-18T16:59:12;1.80;99.90
21035;DHT22;10676;50.848;3.272;2022-12-18T17:01:38;1.90;99.90
21035;DHT22;10676;50.848;3.272;2022-12-18T17:04:05;1.90;99.90
21035;DHT22;10676;50.848;3.272;2022-12-18T17:06:33;1.90;99.90
21035;DHT22;10676;50.848;3.272;2022-12-18T17:09:01;1.90;99.90
21035;DHT22;10676;50.848;3.272;2022-12-18T17:11:29;1.90;99.90
21035;DHT22;10676;50.848;3.272;2022-12-18T17:13:55;1.80;99.90
21035;DHT22;10676;50.848;3.272;2022-12-18T17:16:22;1.90;99.90
21035;DHT22;10676;50.848;3.272;2022-12-18T17:18:48;1.90;99.90
21035;DHT22;10676;50.848;3.272;2022-12-18T17:21:14;1.90;99.90
21035;DHT22;10676;50.848;3.272;2022-12-18T17:23:41;1.90;99.90
21035;DHT22;10676;50.848;3.272;2022-12-18T17:26:09;1.90;99.90
21035;DHT22;10676;50.848;3.272;2022-12-18T17:28:36;2.00;99.90
21035;DHT22;10676;50.848;3.272;2022-12-18T17:31:13;2.00;99.90
21035;DHT22;10676;50.848;3.272;2022-12-18T17:33:39;2.00;99.90
21035;DHT22;10676;50.848;3.272;2022-12-18T17:36:05;2.00;99.90
21035;DHT22;10676;50.848;3.272;2022-12-18T17:38:31;2.00;99.90
21035;DHT22;10676;50.848;3.272;2022-12-18T17:41:05;2.00;99.90
21035;DHT22;10676;50.848;3.272;2022-12-18T17:43:33;2.00;99.90
21035;DHT22;10676;50.848;3.272;2022-12-18T17:46:09;2.00;99.90
21035;DHT22;10676;50.848;3.272;2022-12-18T17:48:35;2.00;99.90
21035;DHT22;10676;50.848;3.272;2022-12-18T17:51:02;2.00;99.90
21035;DHT22;10676;50.848;3.272;2022-12-18T17:53:28;2.10;99.90
21035;DHT22;10676;50.848;3.272;2022-12-18T17:55:55;2.10;99.90
21035;DHT22;10676;50.848;3.272;2022-12-18T17:58:21;2.00;99.90